Rio Grande City, Texas
Current Conditions -  °F | °C
As of 10:21 AM on Thursday 18 Dec 2014 (Local Time) from KMFE Reporting Station
Overcast Overcast  
Wind Chill: 19°   Ceiling: 1200
Heat Index: 19°   Visibility: 9mi
Dew Point: 16°   Wind: 7mph
Humidity: 81%   Direction: 260°W
Pressure: 30.08"   Gusts: NA
Location:  26.38°N, 98.81°W
Report Text: KMFE 181621Z 26006KT 9SM BKN012 BKN017 OVC050 19/16 A3008 RMK AO2 T01890156
Loading
Personal Weather Stations






























Interactive Weather Map New forecast layout! Learn more

10-Day Weather Forecast

Advertisements
Track Severe Weather on mobile